createdAt,value
2022-07-30T00:04:52.709Z,19.24
2022-07-30T00:09:56.553Z,19.19
2022-07-30T00:15:00.274Z,19.13
2022-07-30T00:20:06.301Z,19.05
2022-07-30T00:25:10.573Z,19.00
2022-07-30T00:30:14.823Z,18.93
2022-07-30T00:35:21.122Z,18.85
2022-07-30T00:40:25.057Z,18.70
2022-07-30T00:45:28.916Z,18.68
2022-07-30T00:50:34.190Z,18.65
2022-07-30T00:55:39.169Z,18.54
2022-07-30T01:00:43.240Z,18.48
2022-07-30T01:05:48.673Z,18.40
2022-07-30T01:10:52.408Z,18.34
2022-07-30T01:15:58.102Z,18.29
2022-07-30T01:21:13.345Z,18.29
2022-07-30T01:26:22.195Z,18.14
2022-07-30T01:31:28.369Z,18.14
2022-07-30T01:36:33.652Z,18.08
2022-07-30T01:41:39.672Z,18.00
2022-07-30T01:46:43.734Z,17.91
2022-07-30T01:51:49.894Z,17.81
2022-07-30T01:56:57.683Z,17.76
2022-07-30T02:02:03.156Z,17.66
2022-07-30T02:07:14.839Z,17.68
2022-07-30T02:12:29.457Z,17.62
2022-07-30T02:17:42.935Z,17.56
2022-07-30T02:22:50.084Z,17.52
2022-07-30T02:28:06.136Z,17.46
2022-07-30T02:33:12.746Z,17.41
2022-07-30T02:38:18.803Z,17.37
2022-07-30T02:43:27.539Z,17.33
2022-07-30T02:48:42.079Z,17.29
2022-07-30T02:53:48.549Z,17.24
2022-07-30T02:58:55.325Z,17.20
2022-07-30T03:04:00.010Z,17.18
2022-07-30T03:09:05.419Z,17.13
2022-07-30T03:14:12.163Z,17.11
2022-07-30T03:19:18.331Z,17.09
2022-07-30T03:24:25.554Z,17.02
2022-07-30T03:29:32.455Z,16.98
2022-07-30T03:34:36.817Z,16.93
2022-07-30T03:39:41.699Z,16.86
2022-07-30T03:44:47.562Z,16.84
2022-07-30T03:49:52.363Z,16.74
2022-07-30T03:54:56.352Z,16.63
2022-07-30T04:00:02.704Z,16.61
2022-07-30T04:05:18.077Z,16.59
2022-07-30T04:10:22.747Z,16.58
2022-07-30T04:16:05.995Z,16.51
2022-07-30T04:20:55.739Z,16.40
2022-07-30T04:26:00.657Z,16.37
2022-07-30T04:31:06.647Z,16.37
2022-07-30T04:36:13.895Z,16.37
2022-07-30T04:41:20.153Z,16.38
2022-07-30T04:46:27.349Z,16.18
2022-07-30T04:51:35.179Z,16.18
2022-07-30T04:56:39.452Z,16.23
2022-07-30T05:01:58.388Z,16.30
2022-07-30T05:07:04.321Z,16.23
2022-07-30T05:12:09.139Z,16.23
2022-07-30T05:17:14.243Z,16.31
2022-07-30T05:22:17.954Z,16.29
2022-07-30T05:27:21.747Z,16.30
2022-07-30T05:32:27.195Z,16.32
2022-07-30T05:37:31.234Z,16.32
2022-07-30T05:42:35.132Z,16.36
2022-07-30T05:47:40.264Z,16.44
2022-07-30T05:52:43.997Z,16.46
2022-07-30T05:57:50.216Z,16.44
2022-07-30T06:02:55.839Z,16.50
2022-07-30T06:08:02.539Z,16.61
2022-07-30T06:13:06.825Z,16.73
2022-07-30T06:18:11.970Z,16.83
2022-07-30T06:23:16.823Z,16.97
2022-07-30T06:28:39.006Z,17.12
2022-07-30T06:33:46.561Z,17.23
2022-07-30T06:38:51.253Z,17.39
2022-07-30T06:43:56.709Z,17.54
2022-07-30T06:49:02.794Z,17.67
2022-07-30T06:54:08.452Z,17.79
2022-07-30T06:59:27.592Z,18.03
2022-07-30T07:04:43.399Z,18.30
2022-07-30T07:09:47.406Z,18.47
2022-07-30T07:14:54.314Z,18.51
2022-07-30T07:20:02.326Z,18.52
2022-07-30T07:25:08.664Z,18.57
2022-07-30T07:30:13.513Z,18.68
2022-07-30T07:35:18.837Z,18.81
2022-07-30T07:40:24.786Z,18.90
2022-07-30T07:45:28.946Z,18.91
2022-07-30T07:50:34.790Z,19.10
2022-07-30T07:55:39.608Z,19.26
2022-07-30T08:00:43.569Z,19.36
2022-07-30T08:06:01.779Z,19.48
2022-07-30T08:11:16.017Z,19.61
2022-07-30T08:16:23.108Z,19.77
2022-07-30T08:21:30.827Z,19.90
2022-07-30T08:26:34.589Z,20.05
2022-07-30T08:31:38.372Z,20.23
2022-07-30T08:36:43.693Z,20.38
2022-07-30T08:41:47.944Z,20.49
2022-07-30T08:46:53.378Z,20.65
2022-07-30T08:51:59.179Z,20.96
2022-07-30T08:57:06.308Z,21.30
2022-07-30T09:02:13.041Z,21.46
2022-07-30T09:07:20.201Z,21.82
2022-07-30T09:12:38.984Z,22.11
2022-07-30T09:17:48.418Z,22.15
2022-07-30T09:22:55.616Z,22.24
2022-07-30T09:28:02.307Z,22.46
2022-07-30T09:33:40.597Z,22.58
2022-07-30T09:38:51.612Z,22.70
2022-07-30T09:43:59.828Z,22.76
2022-07-30T09:49:15.775Z,23.07
2022-07-30T09:54:21.327Z,23.35
2022-07-30T09:59:35.261Z,23.55
2022-07-30T10:04:41.016Z,23.92
2022-07-30T10:09:49.147Z,24.27
2022-07-30T10:14:55.129Z,24.66
2022-07-30T10:19:59.836Z,25.36
2022-07-30T10:25:23.053Z,26.24
2022-07-30T10:30:35.293Z,26.94
2022-07-30T10:35:39.540Z,27.26
2022-07-30T10:40:51.807Z,27.69
2022-07-30T10:46:04.494Z,28.27
2022-07-30T10:51:09.360Z,28.41
2022-07-30T10:56:25.763Z,28.57
2022-07-30T11:02:03.798Z,28.43
2022-07-30T11:07:29.332Z,28.33
2022-07-30T11:12:55.574Z,28.20
2022-07-30T11:18:12.043Z,28.43
2022-07-30T11:23:37.673Z,28.24
2022-07-30T11:28:49.615Z,27.57
2022-07-30T11:33:53.583Z,28.13
2022-07-30T11:39:06.933Z,27.91
2022-07-30T11:44:29.977Z,27.53
2022-07-30T11:49:36.733Z,27.56
2022-07-30T11:54:52.872Z,27.54
2022-07-30T11:59:58.487Z,27.33
2022-07-30T12:05:02.207Z,27.13
2022-07-30T12:10:16.717Z,26.89
2022-07-30T12:15:33.990Z,26.67
2022-07-30T12:20:38.005Z,26.50
2022-07-30T12:25:47.871Z,26.34
2022-07-30T12:30:57.450Z,26.39
2022-07-30T12:36:02.047Z,26.39
2022-07-30T12:41:06.894Z,26.43
2022-07-30T12:46:15.040Z,26.58
2022-07-30T12:51:19.772Z,26.52
2022-07-30T12:56:27.152Z,26.55
2022-07-30T13:01:47.011Z,26.67
2022-07-30T13:07:08.015Z,26.91
2022-07-30T13:12:13.362Z,27.29
2022-07-30T13:17:19.571Z,27.03
2022-07-30T13:22:23.324Z,27.47
2022-07-30T13:27:27.027Z,27.48
2022-07-30T13:32:32.906Z,27.35
2022-07-30T13:37:38.386Z,27.63
2022-07-30T13:42:42.503Z,27.61
2022-07-30T13:47:48.442Z,27.70
2022-07-30T13:52:52.310Z,27.86
2022-07-30T13:57:56.054Z,27.83
2022-07-30T14:03:02.135Z,27.72
2022-07-30T14:08:07.772Z,27.69
2022-07-30T14:13:19.097Z,27.92
2022-07-30T14:18:26.324Z,28.17
2022-07-30T14:23:31.089Z,28.11
2022-07-30T14:28:34.922Z,28.25
2022-07-30T14:33:40.083Z,28.38
2022-07-30T14:38:44.365Z,28.46
2022-07-30T14:43:48.094Z,28.58
2022-07-30T14:48:53.208Z,28.48
2022-07-30T14:53:59.063Z,28.50
2022-07-30T14:59:02.910Z,28.33
2022-07-30T15:04:09.537Z,28.27
2022-07-30T15:09:13.296Z,28.06
2022-07-30T15:14:17.246Z,27.84
2022-07-30T15:19:26.796Z,27.49
2022-07-30T15:24:30.551Z,27.36
2022-07-30T15:29:34.421Z,27.05
2022-07-30T15:34:39.520Z,27.14
2022-07-30T15:39:43.286Z,27.14
2022-07-30T15:44:48.987Z,27.12
2022-07-30T15:49:54.362Z,27.04
2022-07-30T15:54:58.168Z,26.92
2022-07-30T16:00:01.881Z,26.88
2022-07-30T16:05:16.608Z,26.81
2022-07-30T16:10:20.303Z,26.81
2022-07-30T16:15:25.640Z,26.71
2022-07-30T16:20:30.726Z,26.79
2022-07-30T16:25:34.566Z,26.92
2022-07-30T16:30:50.976Z,27.01
2022-07-30T16:35:56.795Z,27.02
2022-07-30T16:41:00.571Z,27.05
2022-07-30T16:46:04.380Z,27.02
2022-07-30T16:51:09.456Z,26.90
2022-07-30T16:56:14.126Z,26.73
2022-07-30T17:01:17.941Z,26.74
2022-07-30T17:06:23.164Z,26.64
2022-07-30T17:11:46.752Z,26.57
2022-07-30T17:16:51.425Z,26.46
2022-07-30T17:21:56.514Z,26.30
2022-07-30T17:27:00.248Z,26.24
2022-07-30T17:32:04.456Z,26.18
2022-07-30T17:37:09.894Z,26.07
2022-07-30T17:42:13.972Z,25.95
2022-07-30T17:47:17.956Z,25.83
2022-07-30T17:52:26.718Z,25.74
2022-07-30T17:57:30.941Z,25.64
2022-07-30T18:02:34.686Z,25.61
2022-07-30T18:07:39.806Z,25.55
2022-07-30T18:12:49.040Z,25.49
2022-07-30T18:17:53.463Z,25.43
2022-07-30T18:22:58.511Z,25.35
2022-07-30T18:28:03.798Z,25.29
2022-07-30T18:33:07.567Z,25.18
2022-07-30T18:38:14.312Z,25.08
2022-07-30T18:43:19.000Z,25.01
2022-07-30T18:48:23.298Z,24.99
2022-07-30T18:53:28.463Z,24.90
2022-07-30T18:58:32.631Z,24.84
2022-07-30T19:03:36.432Z,24.78
2022-07-30T19:08:41.497Z,24.65
2022-07-30T19:13:45.231Z,24.57
2022-07-30T19:18:48.998Z,24.48
2022-07-30T19:23:54.141Z,24.41
2022-07-30T19:28:58.803Z,24.33
2022-07-30T19:34:02.879Z,24.33
2022-07-30T19:39:11.040Z,24.23
2022-07-30T19:44:19.931Z,24.12
2022-07-30T19:49:23.712Z,24.10
2022-07-30T19:54:34.879Z,24.02
2022-07-30T19:59:57.868Z,24.01
2022-07-30T20:05:05.959Z,23.98
2022-07-30T20:10:12.631Z,23.99
2022-07-30T20:15:16.460Z,23.94
2022-07-30T20:20:26.498Z,23.85
2022-07-30T20:25:37.398Z,23.81
2022-07-30T20:30:41.333Z,23.74
2022-07-30T20:35:45.349Z,23.71
2022-07-30T20:40:52.771Z,23.63
2022-07-30T20:45:56.652Z,23.61
2022-07-30T20:51:00.529Z,23.48
2022-07-30T20:56:06.226Z,23.45
2022-07-30T21:01:17.713Z,23.41
2022-07-30T21:06:22.620Z,23.39
2022-07-30T21:11:32.013Z,23.35
2022-07-30T21:16:41.417Z,23.31
2022-07-30T21:21:48.714Z,23.21
2022-07-30T21:26:53.931Z,23.17
2022-07-30T21:32:02.664Z,23.06
2022-07-30T21:37:07.347Z,22.93
2022-07-30T21:42:12.764Z,22.75
2022-07-30T21:47:16.557Z,22.63
2022-07-30T21:52:20.265Z,22.47
2022-07-30T21:57:26.706Z,22.37
2022-07-30T22:02:34.025Z,22.27
2022-07-30T22:07:38.280Z,22.16
2022-07-30T22:12:43.716Z,22.14
2022-07-30T22:17:58.463Z,22.10
2022-07-30T22:23:11.307Z,22.05
2022-07-30T22:28:16.799Z,21.98
2022-07-30T22:33:20.905Z,21.95
2022-07-30T22:38:24.798Z,21.85
2022-07-30T22:43:35.609Z,21.81
2022-07-30T22:48:44.949Z,21.81
2022-07-30T22:54:11.403Z,21.75
2022-07-30T22:59:14.095Z,21.72
2022-07-30T23:04:18.852Z,21.68
2022-07-30T23:09:22.783Z,21.61
2022-07-30T23:14:28.768Z,21.54
2022-07-30T23:19:32.876Z,21.51
2022-07-30T23:24:36.682Z,21.47
2022-07-30T23:29:41.753Z,21.40
2022-07-30T23:34:45.440Z,21.34
2022-07-30T23:39:49.295Z,21.31
2022-07-30T23:44:54.400Z,21.26
2022-07-30T23:49:58.252Z,21.23
2022-07-30T23:55:02.006Z,21.20
